createdAt,value
2017-10-29T00:00:48.284Z,12.28
2017-10-29T00:01:48.582Z,12.28
2017-10-29T00:02:48.114Z,12.27
2017-10-29T00:03:48.458Z,12.24
2017-10-29T00:04:47.983Z,12.24
2017-10-29T00:05:47.890Z,12.24
2017-10-29T00:06:48.080Z,12.24
2017-10-29T00:07:48.822Z,12.22
2017-10-29T00:08:47.835Z,12.21
2017-10-29T00:09:48.515Z,12.21
2017-10-29T00:10:47.936Z,12.20
2017-10-29T00:11:48.414Z,12.20
2017-10-29T00:12:47.531Z,12.18
2017-10-29T00:13:47.525Z,12.18
2017-10-29T00:14:47.863Z,12.18
2017-10-29T00:15:48.285Z,12.18
2017-10-29T00:16:48.248Z,12.15
2017-10-29T00:17:47.877Z,12.15
2017-10-29T00:18:48.322Z,12.17
2017-10-29T00:19:48.311Z,12.17
2017-10-29T00:20:48.814Z,12.15
2017-10-29T00:21:48.031Z,12.15
2017-10-29T00:22:48.390Z,12.15
2017-10-29T00:23:47.914Z,12.13
2017-10-29T00:24:48.267Z,12.15
2017-10-29T00:25:48.202Z,12.13
2017-10-29T00:26:48.729Z,12.13
2017-10-29T00:27:48.317Z,12.12
2017-10-29T00:28:47.831Z,12.12
2017-10-29T00:29:48.222Z,12.10
2017-10-29T00:30:47.675Z,12.10
2017-10-29T00:31:47.651Z,12.12
2017-10-29T00:32:48.151Z,12.09
2017-10-29T00:33:48.248Z,12.09
2017-10-29T00:34:47.496Z,12.07
2017-10-29T00:35:47.912Z,12.07
2017-10-29T00:36:48.146Z,12.06
2017-10-29T00:37:48.513Z,12.07
2017-10-29T00:38:47.764Z,12.07
2017-10-29T00:39:48.066Z,12.07
2017-10-29T00:40:48.339Z,12.06
2017-10-29T00:41:48.483Z,12.07
2017-10-29T00:42:47.659Z,12.04
2017-10-29T00:43:47.797Z,12.06
2017-10-29T00:44:48.057Z,12.07
2017-10-29T00:45:47.748Z,12.06
2017-10-29T00:46:47.579Z,12.09
2017-10-29T00:47:47.711Z,12.10
2017-10-29T00:48:47.813Z,12.12
2017-10-29T00:49:48.043Z,12.10
2017-10-29T00:50:48.498Z,12.10
2017-10-29T00:51:47.442Z,12.10
2017-10-29T00:52:47.721Z,12.10
2017-10-29T00:53:47.704Z,12.09
2017-10-29T00:54:47.675Z,12.10
2017-10-29T00:55:48.353Z,12.10
2017-10-29T00:56:48.780Z,12.09
2017-10-29T00:57:47.897Z,12.10
2017-10-29T00:58:48.199Z,12.10
2017-10-29T00:59:48.419Z,12.12
2017-10-29T01:00:48.739Z,12.09
2017-10-29T01:01:48.678Z,12.10
2017-10-29T01:02:47.914Z,12.09
2017-10-29T01:03:47.969Z,12.09
2017-10-29T01:04:47.525Z,12.07
2017-10-29T01:05:47.434Z,12.06
2017-10-29T01:06:47.888Z,12.06
2017-10-29T01:07:47.697Z,12.06
2017-10-29T01:08:47.393Z,12.06
2017-10-29T01:09:47.596Z,12.07
2017-10-29T01:10:47.394Z,12.09
2017-10-29T01:11:48.953Z,12.10
2017-10-29T01:12:47.719Z,12.09
2017-10-29T01:13:48.127Z,12.10
2017-10-29T01:14:48.532Z,12.12
2017-10-29T01:15:48.154Z,12.12
2017-10-29T01:16:48.168Z,12.10
2017-10-29T01:17:48.245Z,12.17
2017-10-29T01:18:48.134Z,12.15
2017-10-29T01:19:48.336Z,12.17
2017-10-29T01:20:48.567Z,12.17
2017-10-29T01:21:47.926Z,12.17
2017-10-29T01:22:48.832Z,12.18
2017-10-29T01:23:48.397Z,12.18
2017-10-29T01:24:48.551Z,12.17
2017-10-29T01:25:47.784Z,12.13
2017-10-29T01:26:47.461Z,12.13
2017-10-29T01:27:47.664Z,12.20
2017-10-29T01:28:48.228Z,12.18
2017-10-29T01:29:48.011Z,12.15
2017-10-29T01:30:47.839Z,12.15
2017-10-29T01:31:47.776Z,12.10
2017-10-29T01:32:47.834Z,12.13
2017-10-29T01:33:47.688Z,12.09
2017-10-29T01:34:47.511Z,12.03
2017-10-29T01:35:47.740Z,12.00
2017-10-29T01:36:47.590Z,11.99
2017-10-29T01:37:48.541Z,11.97
2017-10-29T01:38:47.366Z,11.97
2017-10-29T01:39:49.753Z,11.99
2017-10-29T01:40:48.429Z,11.97
2017-10-29T01:41:48.293Z,11.97
2017-10-29T01:42:48.908Z,11.97
2017-10-29T01:43:48.345Z,11.99
2017-10-29T01:44:49.919Z,11.99
2017-10-29T01:45:47.335Z,12.02
2017-10-29T01:46:48.043Z,12.00
2017-10-29T01:47:48.392Z,12.03
2017-10-29T01:48:48.329Z,12.06
2017-10-29T01:49:49.838Z,12.06
2017-10-29T01:50:47.991Z,12.06
2017-10-29T01:51:48.232Z,12.06
2017-10-29T01:52:48.642Z,12.06
2017-10-29T01:53:47.869Z,12.07
2017-10-29T01:54:48.689Z,12.07
2017-10-29T01:55:47.929Z,12.07
2017-10-29T01:56:47.948Z,12.09
2017-10-29T01:57:48.119Z,12.06
2017-10-29T01:58:48.653Z,12.09
2017-10-29T01:59:49.105Z,12.09
2017-10-29T02:00:48.493Z,12.06
2017-10-29T02:01:48.720Z,12.07
2017-10-29T02:02:48.496Z,12.10
2017-10-29T02:03:48.292Z,12.10
2017-10-29T02:04:48.453Z,12.09
2017-10-29T02:05:48.870Z,12.07
2017-10-29T02:06:48.730Z,12.06
2017-10-29T02:07:50.782Z,12.06
2017-10-29T02:08:49.516Z,12.06
2017-10-29T02:09:47.996Z,12.04
2017-10-29T02:10:48.176Z,12.00
2017-10-29T02:11:47.645Z,12.00
2017-10-29T02:12:47.842Z,11.99
2017-10-29T02:13:47.920Z,12.03
2017-10-29T02:14:48.020Z,12.06
2017-10-29T02:15:48.220Z,12.07
2017-10-29T02:16:48.503Z,12.10
2017-10-29T02:17:48.547Z,12.13
2017-10-29T02:18:47.852Z,12.09
2017-10-29T02:19:48.720Z,12.09
2017-10-29T02:20:47.793Z,12.13
2017-10-29T02:21:47.295Z,12.13
2017-10-29T02:22:48.095Z,12.10
2017-10-29T02:23:48.272Z,12.07
2017-10-29T02:24:48.478Z,12.06
2017-10-29T02:25:47.285Z,12.12
2017-10-29T02:26:48.667Z,12.13
2017-10-29T02:27:47.599Z,12.09
2017-10-29T02:28:47.786Z,12.00
2017-10-29T02:29:47.739Z,11.90
2017-10-29T02:30:47.521Z,11.87
2017-10-29T02:31:47.318Z,11.83
2017-10-29T02:32:49.115Z,11.78
2017-10-29T02:33:48.894Z,11.78
2017-10-29T02:34:48.215Z,11.78
2017-10-29T02:35:48.035Z,11.77
2017-10-29T02:36:47.876Z,11.75
2017-10-29T02:37:47.854Z,11.68
2017-10-29T02:38:47.650Z,11.59
2017-10-29T02:39:47.955Z,11.52
2017-10-29T02:40:47.953Z,11.43
2017-10-29T02:41:48.218Z,11.32
2017-10-29T02:42:48.557Z,11.19
2017-10-29T02:43:48.818Z,11.12
2017-10-29T02:44:47.715Z,11.05
2017-10-29T02:45:48.122Z,10.96
2017-10-29T02:46:48.317Z,10.90
2017-10-29T02:47:48.417Z,10.86
2017-10-29T02:48:48.007Z,10.86
2017-10-29T02:49:47.849Z,10.78
2017-10-29T02:50:47.700Z,10.76
2017-10-29T02:51:47.576Z,10.81
2017-10-29T02:52:48.475Z,10.75
2017-10-29T02:53:49.188Z,10.74
2017-10-29T02:54:48.443Z,10.68
2017-10-29T02:55:47.423Z,10.69
2017-10-29T02:56:47.600Z,10.71
2017-10-29T02:57:48.089Z,10.63
2017-10-29T02:58:48.337Z,10.61
2017-10-29T02:59:48.104Z,10.57
2017-10-29T03:00:48.223Z,10.56
2017-10-29T03:01:48.483Z,10.57
2017-10-29T03:02:47.706Z,10.54
2017-10-29T03:03:48.507Z,10.57
2017-10-29T03:04:47.320Z,10.56
2017-10-29T03:05:48.152Z,10.57
2017-10-29T03:06:48.154Z,10.59
2017-10-29T03:07:48.205Z,10.67
2017-10-29T03:08:48.223Z,10.74
2017-10-29T03:09:48.085Z,10.67
2017-10-29T03:10:47.929Z,10.60
2017-10-29T03:11:47.827Z,10.56
2017-10-29T03:12:47.953Z,10.57
2017-10-29T03:13:48.901Z,10.61
2017-10-29T03:14:48.665Z,10.71
2017-10-29T03:15:48.910Z,10.72
2017-10-29T03:16:49.303Z,10.74
2017-10-29T03:17:48.443Z,10.78
2017-10-29T03:18:49.208Z,10.84
2017-10-29T03:19:49.073Z,10.86
2017-10-29T03:20:48.705Z,10.86
2017-10-29T03:21:50.436Z,10.89
2017-10-29T03:22:49.399Z,10.90
2017-10-29T03:23:48.662Z,10.94
2017-10-29T03:24:49.013Z,10.92
2017-10-29T03:25:49.214Z,10.94
2017-10-29T03:26:48.367Z,10.93
2017-10-29T03:27:49.945Z,10.92
2017-10-29T03:28:48.426Z,10.92
2017-10-29T03:29:49.022Z,10.84
2017-10-29T03:30:49.574Z,10.79
2017-10-29T03:31:47.321Z,10.76
2017-10-29T03:32:48.461Z,10.71
2017-10-29T03:33:49.131Z,10.60
2017-10-29T03:34:48.830Z,10.53
2017-10-29T03:35:50.822Z,10.42
2017-10-29T03:36:48.115Z,10.34
2017-10-29T03:37:49.847Z,10.30
2017-10-29T03:38:50.190Z,10.19
2017-10-29T03:39:59.049Z,10.15
2017-10-29T03:40:57.952Z,10.09
2017-10-29T03:42:07.037Z,10.05
2017-10-29T03:44:02.775Z,10.04
2017-10-29T03:44:52.650Z,9.97
2017-10-29T03:46:00.155Z,9.97
2017-10-29T03:48:09.256Z,9.87
2017-10-29T03:50:17.541Z,9.89
2017-10-29T03:51:18.948Z,9.94
2017-10-29T03:52:15.949Z,9.92
2017-10-29T03:53:18.055Z,9.87
2017-10-29T03:54:18.286Z,9.86
2017-10-29T03:55:16.930Z,9.84
2017-10-29T03:56:18.215Z,9.86
2017-10-29T03:57:16.228Z,9.89
2017-10-29T03:58:18.955Z,9.92
2017-10-29T03:59:17.329Z,9.91
2017-10-29T04:00:16.478Z,9.86
2017-10-29T04:01:16.572Z,9.86
2017-10-29T04:02:15.425Z,9.83
2017-10-29T04:03:19.178Z,9.82
2017-10-29T04:04:18.338Z,9.86
2017-10-29T04:05:17.542Z,9.86
2017-10-29T04:06:17.055Z,9.83
2017-10-29T04:07:16.333Z,9.76
2017-10-29T04:08:18.181Z,9.74
2017-10-29T04:09:19.317Z,9.72
2017-10-29T04:10:19.104Z,9.72
2017-10-29T04:11:18.122Z,9.66
2017-10-29T04:12:17.560Z,9.74
2017-10-29T04:13:17.397Z,9.74
2017-10-29T04:14:17.024Z,9.72
2017-10-29T04:15:19.544Z,9.73
2017-10-29T04:16:18.187Z,9.76
2017-10-29T04:17:21.276Z,9.77
2017-10-29T04:18:16.598Z,9.73
2017-10-29T04:19:17.404Z,9.68
2017-10-29T04:20:17.652Z,9.65
2017-10-29T04:21:24.911Z,9.74
2017-10-29T04:22:18.566Z,9.80
2017-10-29T04:23:16.540Z,9.80
2017-10-29T04:24:16.001Z,9.82
2017-10-29T04:25:15.928Z,9.76
2017-10-29T04:26:31.977Z,9.73
2017-10-29T04:28:18.660Z,9.68
2017-10-29T04:29:17.697Z,9.68
2017-10-29T04:30:15.948Z,9.62
2017-10-29T04:31:16.255Z,9.62
2017-10-29T04:32:16.045Z,9.76
2017-10-29T04:33:16.318Z,9.69
2017-10-29T04:34:15.386Z,9.62
2017-10-29T04:35:16.194Z,9.68
2017-10-29T04:36:16.580Z,9.72
2017-10-29T04:37:16.752Z,9.59
2017-10-29T04:38:16.212Z,9.59
2017-10-29T04:39:16.367Z,9.50
2017-10-29T04:40:16.299Z,9.48
2017-10-29T04:41:16.372Z,9.56
2017-10-29T04:42:16.270Z,9.55
2017-10-29T04:43:16.395Z,9.54
2017-10-29T04:44:16.585Z,9.56
2017-10-29T04:45:15.786Z,9.58
2017-10-29T04:46:15.694Z,9.46
2017-10-29T04:47:16.246Z,9.44
2017-10-29T04:48:16.608Z,9.41
2017-10-29T04:49:16.410Z,9.46
2017-10-29T04:50:16.461Z,9.46
2017-10-29T04:51:15.992Z,9.43
2017-10-29T04:52:15.808Z,9.47
2017-10-29T04:53:15.744Z,9.55
2017-10-29T04:54:16.225Z,9.47
2017-10-29T04:55:16.363Z,9.46
2017-10-29T04:56:16.544Z,9.46
2017-10-29T04:57:16.601Z,9.48
2017-10-29T04:58:16.637Z,9.51
2017-10-29T04:59:16.490Z,9.50
2017-10-29T05:00:15.852Z,9.43
2017-10-29T05:01:16.166Z,9.39
2017-10-29T05:02:16.593Z,9.26
2017-10-29T05:03:16.417Z,9.22
2017-10-29T05:04:17.003Z,9.23
2017-10-29T05:05:16.233Z,9.31
2017-10-29T05:06:16.635Z,9.26
2017-10-29T05:07:15.830Z,9.25
2017-10-29T05:08:16.149Z,9.16
2017-10-29T05:09:16.560Z,9.19
2017-10-29T05:10:16.189Z,9.06
2017-10-29T05:11:16.816Z,9.00
2017-10-29T05:12:15.931Z,9.03
2017-10-29T05:13:16.466Z,9.16
2017-10-29T05:14:16.848Z,9.22
2017-10-29T05:15:15.895Z,9.16
2017-10-29T05:16:16.616Z,9.11
2017-10-29T05:17:15.392Z,9.03
2017-10-29T05:18:16.493Z,9.10
2017-10-29T05:19:16.285Z,9.13
2017-10-29T05:20:16.031Z,9.06
2017-10-29T05:21:16.475Z,9.14
2017-10-29T05:22:16.762Z,9.25
2017-10-29T05:23:15.639Z,9.19
2017-10-29T05:24:15.467Z,9.22
2017-10-29T05:25:16.312Z,9.21
2017-10-29T05:26:17.225Z,9.18
2017-10-29T05:27:16.285Z,9.21
2017-10-29T05:28:16.206Z,9.21
2017-10-29T05:29:15.966Z,9.18
2017-10-29T05:30:16.287Z,9.29
2017-10-29T05:31:16.233Z,9.31
2017-10-29T05:32:16.644Z,9.31
2017-10-29T05:33:15.883Z,9.29
2017-10-29T05:34:15.890Z,9.31
2017-10-29T05:35:16.109Z,9.34
2017-10-29T05:36:15.773Z,9.34
2017-10-29T05:37:15.391Z,9.32
2017-10-29T05:38:16.347Z,9.25
2017-10-29T05:39:16.512Z,9.14
2017-10-29T05:40:16.560Z,9.06
2017-10-29T05:41:15.981Z,9.18
2017-10-29T05:42:15.875Z,9.18
2017-10-29T05:43:16.204Z,9.25
2017-10-29T05:44:15.561Z,9.29
2017-10-29T05:45:16.395Z,9.39
2017-10-29T05:46:16.228Z,9.39
2017-10-29T05:47:16.060Z,9.29
2017-10-29T05:48:16.582Z,9.36
2017-10-29T05:49:15.520Z,9.40
2017-10-29T05:50:16.260Z,9.36
2017-10-29T05:51:16.805Z,9.36
2017-10-29T05:52:15.594Z,9.36
2017-10-29T05:53:15.462Z,9.28
2017-10-29T05:54:17.178Z,9.26
2017-10-29T05:55:15.873Z,9.26
2017-10-29T05:56:16.886Z,9.26
2017-10-29T05:57:16.221Z,9.28
2017-10-29T05:58:16.432Z,9.34
2017-10-29T05:59:16.867Z,9.31
2017-10-29T06:00:16.386Z,9.32
2017-10-29T06:01:15.562Z,9.31
2017-10-29T06:02:16.842Z,9.31
2017-10-29T06:03:16.097Z,9.39
2017-10-29T06:04:16.345Z,9.37
2017-10-29T06:05:16.588Z,9.32
2017-10-29T06:06:16.733Z,9.25
2017-10-29T06:07:16.884Z,9.22
2017-10-29T06:08:16.357Z,9.26
2017-10-29T06:09:16.614Z,9.23
2017-10-29T06:10:15.546Z,9.28
2017-10-29T06:11:16.859Z,9.29
2017-10-29T06:12:15.848Z,9.32
2017-10-29T06:13:16.342Z,9.32
2017-10-29T06:14:16.310Z,9.22
2017-10-29T06:15:16.282Z,9.16
2017-10-29T06:16:15.815Z,9.11
2017-10-29T06:17:17.583Z,9.06
2017-10-29T06:18:16.550Z,9.03
2017-10-29T06:19:15.933Z,9.04
2017-10-29T06:20:15.796Z,9.08
2017-10-29T06:21:16.501Z,9.11
2017-10-29T06:22:16.806Z,9.11
2017-10-29T06:23:16.173Z,9.08
2017-10-29T06:24:16.135Z,9.03
2017-10-29T06:25:16.418Z,8.97
2017-10-29T06:26:16.821Z,8.97
2017-10-29T06:27:16.089Z,8.92
2017-10-29T06:28:16.845Z,8.91
2017-10-29T06:29:16.936Z,8.88
2017-10-29T06:30:16.467Z,8.84
2017-10-29T06:31:16.035Z,8.87
2017-10-29T06:32:17.158Z,8.94
2017-10-29T06:33:16.782Z,9.00
2017-10-29T06:34:17.096Z,8.92
2017-10-29T06:35:15.708Z,8.99
2017-10-29T06:36:15.757Z,8.94
2017-10-29T06:37:15.578Z,8.92
2017-10-29T06:38:16.164Z,8.97
2017-10-29T06:39:16.822Z,8.97
2017-10-29T06:40:15.801Z,9.04
2017-10-29T06:41:16.338Z,9.10
2017-10-29T06:42:16.046Z,9.13
2017-10-29T06:43:16.409Z,9.13
2017-10-29T06:44:17.024Z,9.16
2017-10-29T06:45:16.749Z,9.11
2017-10-29T06:46:16.657Z,9.10
2017-10-29T06:47:16.863Z,9.03
2017-10-29T06:48:17.635Z,9.04
2017-10-29T06:49:16.374Z,9.13
2017-10-29T06:50:16.654Z,9.11
2017-10-29T06:51:16.159Z,9.10
2017-10-29T06:52:16.140Z,9.16
2017-10-29T06:53:16.704Z,9.14
2017-10-29T06:54:16.593Z,9.14
2017-10-29T06:55:16.719Z,9.14
2017-10-29T06:56:16.908Z,9.22
2017-10-29T06:57:16.400Z,9.28
2017-10-29T06:58:16.555Z,9.36
2017-10-29T06:59:15.908Z,9.39
2017-10-29T07:00:17.071Z,9.34
2017-10-29T07:01:16.464Z,9.32
2017-10-29T07:02:16.974Z,9.29
2017-10-29T07:03:17.134Z,9.34
2017-10-29T07:04:16.789Z,9.37
2017-10-29T07:05:15.996Z,9.40
2017-10-29T07:06:16.566Z,9.39
2017-10-29T07:07:15.841Z,9.37
2017-10-29T07:08:16.229Z,9.40
2017-10-29T07:09:16.735Z,9.43
2017-10-29T07:10:15.632Z,9.43
2017-10-29T07:11:15.693Z,9.44
2017-10-29T07:12:15.906Z,9.44
2017-10-29T07:13:16.661Z,9.44
2017-10-29T07:14:17.400Z,9.47
2017-10-29T07:15:16.292Z,9.47
2017-10-29T07:16:15.963Z,9.51
2017-10-29T07:17:16.044Z,9.50
2017-10-29T07:18:16.351Z,9.50
2017-10-29T07:19:15.876Z,9.46
2017-10-29T07:20:15.800Z,9.46
2017-10-29T07:21:16.249Z,9.47
2017-10-29T07:22:16.295Z,9.48
2017-10-29T07:23:16.279Z,9.50
2017-10-29T07:24:16.225Z,9.51
2017-10-29T07:25:16.453Z,9.62
2017-10-29T07:26:16.664Z,9.69
2017-10-29T07:27:16.030Z,9.80
2017-10-29T07:28:16.548Z,9.83
2017-10-29T07:29:16.680Z,9.87
2017-10-29T07:30:15.743Z,9.86
2017-10-29T07:31:16.025Z,9.83
2017-10-29T07:32:16.558Z,9.82
2017-10-29T07:33:15.754Z,9.83
2017-10-29T07:34:16.667Z,9.86
2017-10-29T07:35:16.126Z,9.87
2017-10-29T07:36:16.458Z,9.95
2017-10-29T07:37:16.661Z,9.97
2017-10-29T07:38:17.157Z,9.97
2017-10-29T07:39:16.207Z,9.98
2017-10-29T07:40:15.959Z,10.01
2017-10-29T07:41:16.529Z,10.12
2017-10-29T07:42:16.860Z,10.30
2017-10-29T07:43:16.022Z,10.46
2017-10-29T07:44:16.556Z,10.42
2017-10-29T07:45:16.196Z,10.25
2017-10-29T07:46:16.741Z,10.12
2017-10-29T07:47:16.006Z,10.01
2017-10-29T07:48:16.151Z,9.74
2017-10-29T07:49:17.115Z,9.61
2017-10-29T07:50:16.808Z,9.54
2017-10-29T07:51:16.280Z,9.47
2017-10-29T07:52:16.522Z,9.46
2017-10-29T07:53:16.541Z,9.48
2017-10-29T07:54:16.091Z,9.58
2017-10-29T07:55:16.568Z,9.77
2017-10-29T07:56:17.097Z,9.87
2017-10-29T07:57:15.955Z,9.86
2017-10-29T07:58:15.970Z,9.87
2017-10-29T07:59:16.066Z,9.91
2017-10-29T08:00:16.322Z,9.99
2017-10-29T08:01:16.406Z,9.97
2017-10-29T08:02:16.996Z,10.01
2017-10-29T08:03:15.919Z,10.12
2017-10-29T08:04:17.103Z,10.16
2017-10-29T08:05:16.468Z,10.13
2017-10-29T08:06:16.507Z,10.09
2017-10-29T08:07:15.833Z,10.07
2017-10-29T08:08:16.124Z,10.01
2017-10-29T08:09:16.216Z,9.97
2017-10-29T08:10:16.605Z,9.94
2017-10-29T08:11:15.675Z,9.94
2017-10-29T08:12:15.932Z,9.97
2017-10-29T08:13:16.663Z,10.01
2017-10-29T08:14:16.891Z,10.16
2017-10-29T08:15:16.933Z,10.15
2017-10-29T08:16:17.234Z,10.35
2017-10-29T08:17:16.444Z,10.49
2017-10-29T08:18:17.037Z,10.56
2017-10-29T08:19:16.254Z,10.68
2017-10-29T08:20:16.313Z,10.69
2017-10-29T08:21:17.369Z,10.68
2017-10-29T08:22:16.620Z,10.54
2017-10-29T08:23:17.629Z,10.48
2017-10-29T08:24:16.482Z,10.48
2017-10-29T08:25:17.375Z,10.56
2017-10-29T08:26:16.449Z,10.59
2017-10-29T08:27:16.180Z,10.56
2017-10-29T08:28:16.283Z,10.56
2017-10-29T08:29:16.588Z,10.61
2017-10-29T08:30:17.354Z,10.68
2017-10-29T08:31:19.143Z,10.89
2017-10-29T08:32:16.727Z,11.07
2017-10-29T08:33:15.973Z,11.18
2017-10-29T08:34:16.434Z,11.10
2017-10-29T08:35:16.230Z,11.08
2017-10-29T08:36:16.452Z,11.41
2017-10-29T08:37:16.137Z,11.70
2017-10-29T08:38:17.520Z,11.65
2017-10-29T08:39:15.692Z,11.80
2017-10-29T08:40:16.244Z,12.04
2017-10-29T08:41:16.830Z,11.83
2017-10-29T08:42:15.827Z,11.57
2017-10-29T08:43:16.649Z,11.22
2017-10-29T08:44:16.304Z,11.02
2017-10-29T08:45:18.628Z,11.00
2017-10-29T08:46:16.022Z,10.96
2017-10-29T08:47:16.815Z,10.97
2017-10-29T08:48:23.784Z,10.97
2017-10-29T08:49:16.964Z,11.11
2017-10-29T08:50:16.665Z,11.45
2017-10-29T08:51:16.673Z,11.78
2017-10-29T08:52:16.307Z,12.22
2017-10-29T08:53:16.612Z,12.53
2017-10-29T08:54:17.475Z,12.18
2017-10-29T08:55:17.513Z,11.78
2017-10-29T08:56:16.598Z,11.29
2017-10-29T08:57:16.871Z,11.18
2017-10-29T08:58:16.495Z,11.10
2017-10-29T08:59:17.634Z,10.97
2017-10-29T09:00:15.980Z,10.86
2017-10-29T09:01:16.788Z,10.86
2017-10-29T09:02:16.536Z,10.84
2017-10-29T09:03:16.962Z,11.15
2017-10-29T09:04:16.967Z,11.14
2017-10-29T09:05:16.423Z,11.00
2017-10-29T09:06:16.584Z,10.97
2017-10-29T09:07:16.108Z,11.00
2017-10-29T09:08:16.199Z,11.70
2017-10-29T09:09:17.111Z,12.85
2017-10-29T09:10:16.838Z,13.77
2017-10-29T09:11:16.597Z,14.72
2017-10-29T09:12:16.741Z,14.63
2017-10-29T09:13:16.499Z,15.35
2017-10-29T09:14:16.072Z,13.87
2017-10-29T09:15:17.045Z,13.33
2017-10-29T09:16:16.451Z,13.12
2017-10-29T09:17:17.631Z,13.67
2017-10-29T09:18:16.260Z,14.28
2017-10-29T09:19:16.542Z,14.88
2017-10-29T09:20:17.378Z,15.46
2017-10-29T09:21:17.158Z,15.47
2017-10-29T09:22:17.837Z,15.64
2017-10-29T09:23:16.635Z,15.59
2017-10-29T09:24:15.890Z,16.10
2017-10-29T09:25:17.065Z,16.05
2017-10-29T09:26:16.912Z,15.52
2017-10-29T09:27:17.349Z,14.66
2017-10-29T09:28:16.841Z,14.17
2017-10-29T09:29:16.255Z,14.86
2017-10-29T09:30:17.187Z,15.68
2017-10-29T09:31:16.153Z,16.01
2017-10-29T09:32:17.601Z,16.94
2017-10-29T09:33:16.864Z,16.61
2017-10-29T09:34:16.278Z,17.04
2017-10-29T09:35:18.058Z,16.78
2017-10-29T09:36:16.558Z,16.78
2017-10-29T09:37:16.994Z,16.50
2017-10-29T09:38:16.617Z,16.76
2017-10-29T09:39:17.732Z,17.26
2017-10-29T09:40:16.814Z,16.93
2017-10-29T09:41:16.671Z,15.79
2017-10-29T09:42:15.980Z,16.24
2017-10-29T09:43:16.758Z,16.54
2017-10-29T09:44:16.202Z,16.87
2017-10-29T09:45:16.926Z,15.82
2017-10-29T09:46:17.470Z,15.95
2017-10-29T09:47:17.296Z,14.35
2017-10-29T09:48:17.395Z,14.12
2017-10-29T09:49:17.979Z,13.63
2017-10-29T09:50:17.112Z,13.41
2017-10-29T09:51:17.872Z,13.04
2017-10-29T09:52:16.692Z,12.91
2017-10-29T09:53:17.003Z,12.94
2017-10-29T09:54:16.952Z,13.41
2017-10-29T09:55:16.895Z,13.49
2017-10-29T09:56:17.437Z,13.05
2017-10-29T09:57:17.156Z,13.03
2017-10-29T09:58:18.155Z,12.98
2017-10-29T09:59:19.387Z,13.00
2017-10-29T10:00:16.853Z,13.28
2017-10-29T10:01:16.768Z,12.72
2017-10-29T10:02:16.587Z,12.93
2017-10-29T10:03:16.568Z,13.46
2017-10-29T10:04:16.335Z,13.12
2017-10-29T10:05:17.195Z,12.85
2017-10-29T10:06:17.127Z,13.01
2017-10-29T10:07:17.490Z,12.65
2017-10-29T10:08:17.090Z,12.75
2017-10-29T10:09:16.935Z,13.59
2017-10-29T10:10:16.775Z,13.19
2017-10-29T10:11:16.319Z,12.85
2017-10-29T10:12:17.036Z,12.82
2017-10-29T10:13:16.595Z,12.46
2017-10-29T10:14:17.437Z,12.24
2017-10-29T10:15:18.251Z,11.95
2017-10-29T10:16:16.787Z,11.70
2017-10-29T10:17:17.074Z,11.54
2017-10-29T10:18:16.925Z,11.29
2017-10-29T10:19:17.019Z,11.14
2017-10-29T10:20:16.556Z,11.00
2017-10-29T10:21:17.133Z,10.94
2017-10-29T10:22:17.117Z,10.96
2017-10-29T10:23:16.522Z,10.92
2017-10-29T10:24:16.345Z,10.89
2017-10-29T10:25:16.171Z,10.94
2017-10-29T10:26:16.768Z,10.97
2017-10-29T10:27:17.146Z,11.05
2017-10-29T10:28:17.982Z,11.08
2017-10-29T10:29:17.288Z,11.22
2017-10-29T10:30:18.063Z,11.29
2017-10-29T10:31:16.961Z,11.36
2017-10-29T10:32:17.083Z,11.40
2017-10-29T10:33:19.174Z,11.47
2017-10-29T10:34:18.321Z,11.43
2017-10-29T10:35:17.328Z,11.41
2017-10-29T10:36:51.560Z,11.40
2017-10-29T10:38:19.260Z,11.54
2017-10-29T10:39:21.178Z,11.69
2017-10-29T10:40:20.628Z,11.84
2017-10-29T10:41:21.909Z,12.15
2017-10-29T10:42:18.479Z,12.27
2017-10-29T10:43:18.286Z,12.79
2017-10-29T10:44:17.118Z,12.83
2017-10-29T10:45:20.261Z,12.65
2017-10-29T10:46:18.268Z,12.61
2017-10-29T10:47:21.158Z,12.60
2017-10-29T10:48:19.886Z,12.86
2017-10-29T10:49:21.034Z,14.05
2017-10-29T10:50:18.211Z,13.75
2017-10-29T10:51:16.870Z,14.55
2017-10-29T10:52:16.378Z,14.86
2017-10-29T10:53:18.360Z,14.94
2017-10-29T10:54:19.989Z,14.12
2017-10-29T10:55:19.106Z,14.15
2017-10-29T10:56:17.159Z,13.57
2017-10-29T10:57:17.015Z,13.16
2017-10-29T10:58:16.945Z,14.22
2017-10-29T10:59:18.690Z,14.51
2017-10-29T11:00:21.117Z,14.08
2017-10-29T11:01:21.611Z,13.54
2017-10-29T11:02:17.508Z,13.13
2017-10-29T11:03:17.487Z,12.78
2017-10-29T11:04:18.800Z,12.43
2017-10-29T11:05:19.682Z,12.27
2017-10-29T11:06:18.619Z,12.12
2017-10-29T11:07:17.567Z,11.72
2017-10-29T11:08:24.233Z,11.44
2017-10-29T11:10:18.597Z,10.34
2017-10-29T11:11:18.894Z,9.79
2017-10-29T11:12:22.594Z,9.36
2017-10-29T11:13:19.286Z,9.10
2017-10-29T11:14:19.450Z,9.00
2017-10-29T11:15:18.709Z,8.94
2017-10-29T11:16:21.053Z,8.91
2017-10-29T11:17:19.993Z,8.94
2017-10-29T11:18:18.999Z,8.92
2017-10-29T11:19:17.855Z,8.88
2017-10-29T11:21:15.894Z,8.79
2017-10-29T11:23:23.998Z,8.74
2017-10-29T11:24:26.971Z,8.81
2017-10-29T11:25:33.776Z,8.87
2017-10-29T11:26:26.950Z,9.13
2017-10-29T11:27:24.913Z,10.13
2017-10-29T11:28:27.585Z,12.00
2017-10-29T11:29:26.393Z,12.83
2017-10-29T11:30:26.029Z,13.70
2017-10-29T11:31:28.827Z,14.59
2017-10-29T11:32:23.340Z,15.09
2017-10-29T11:33:24.754Z,15.57
2017-10-29T11:34:24.106Z,15.94
2017-10-29T11:35:23.908Z,16.20
2017-10-29T11:36:23.944Z,16.75
2017-10-29T11:37:23.682Z,15.95
2017-10-29T11:38:23.702Z,16.51
2017-10-29T11:39:24.602Z,16.78
2017-10-29T11:41:08.609Z,16.76
2017-10-29T11:41:55.704Z,18.41
2017-10-29T11:43:00.019Z,17.09
2017-10-29T11:43:58.467Z,15.58
2017-10-29T11:44:57.175Z,14.07
2017-10-29T11:45:57.094Z,13.68
2017-10-29T11:46:57.064Z,13.35
2017-10-29T11:48:12.068Z,13.04
2017-10-29T11:48:55.259Z,12.94
2017-10-29T11:49:56.100Z,12.49
2017-10-29T11:50:55.215Z,12.27
2017-10-29T11:51:56.135Z,12.24
2017-10-29T11:52:56.285Z,13.37
2017-10-29T11:53:56.337Z,14.41
2017-10-29T11:54:56.803Z,13.70
2017-10-29T11:55:55.785Z,13.22
2017-10-29T11:56:55.668Z,14.07
2017-10-29T11:57:55.784Z,13.13
2017-10-29T11:58:55.670Z,12.50
2017-10-29T11:59:55.198Z,11.95
2017-10-29T12:00:56.567Z,11.55
2017-10-29T12:01:55.947Z,11.23
2017-10-29T12:02:56.722Z,10.94
2017-10-29T12:03:55.610Z,10.87
2017-10-29T12:04:59.609Z,10.82
2017-10-29T12:05:55.332Z,10.69
2017-10-29T12:06:57.423Z,10.48
2017-10-29T12:07:55.741Z,10.31
2017-10-29T12:08:55.344Z,10.26
2017-10-29T12:09:56.068Z,10.07
2017-10-29T12:10:55.528Z,9.89
2017-10-29T12:11:57.026Z,9.76
2017-10-29T12:12:56.284Z,9.58
2017-10-29T12:13:56.001Z,9.72
2017-10-29T12:14:55.377Z,9.89
2017-10-29T12:15:56.498Z,9.98
2017-10-29T12:16:55.807Z,9.91
2017-10-29T12:17:58.164Z,9.87
2017-10-29T12:18:58.535Z,10.02
2017-10-29T12:19:56.350Z,10.02
2017-10-29T12:20:57.138Z,10.05
2017-10-29T12:21:55.417Z,11.32
2017-10-29T12:22:56.288Z,11.88
2017-10-29T12:23:55.947Z,12.60
2017-10-29T12:24:59.627Z,13.35
2017-10-29T12:25:57.359Z,13.63
2017-10-29T12:26:59.451Z,14.18
2017-10-29T12:28:02.462Z,14.68
2017-10-29T12:28:55.774Z,15.24
2017-10-29T12:29:56.400Z,15.67
2017-10-29T12:30:55.754Z,16.09
2017-10-29T12:32:09.777Z,15.98
2017-10-29T12:32:55.814Z,15.57
2017-10-29T12:33:56.319Z,15.54
2017-10-29T12:34:55.837Z,14.81
2017-10-29T12:36:01.562Z,14.55
2017-10-29T12:36:56.544Z,13.25
2017-10-29T12:37:57.919Z,12.03
2017-10-29T12:39:00.605Z,11.99
2017-10-29T12:39:56.520Z,12.50
2017-10-29T12:41:06.251Z,12.12
2017-10-29T12:41:55.916Z,11.43
2017-10-29T12:42:55.456Z,12.24
2017-10-29T12:43:58.918Z,13.04
2017-10-29T12:44:56.119Z,14.10
2017-10-29T12:45:57.116Z,15.02
2017-10-29T12:46:57.565Z,15.57
2017-10-29T12:47:55.245Z,15.51
2017-10-29T12:48:56.138Z,15.51
2017-10-29T12:49:55.291Z,14.70
2017-10-29T12:50:56.101Z,14.44
2017-10-29T12:51:55.818Z,13.47
2017-10-29T12:52:56.196Z,12.80
2017-10-29T12:53:55.592Z,12.00
2017-10-29T12:54:55.941Z,11.60
2017-10-29T12:55:55.722Z,13.22
2017-10-29T12:56:56.027Z,13.59
2017-10-29T12:57:55.689Z,14.36
2017-10-29T12:58:55.214Z,15.44
2017-10-29T12:59:55.731Z,15.84
2017-10-29T13:00:55.158Z,16.26
2017-10-29T13:01:55.981Z,16.29
2017-10-29T13:02:55.827Z,16.09
2017-10-29T13:03:55.522Z,15.43
2017-10-29T13:04:56.778Z,14.51
2017-10-29T13:05:55.703Z,13.42
2017-10-29T13:06:56.430Z,12.72
2017-10-29T13:07:56.090Z,12.64
2017-10-29T13:08:55.782Z,12.58
2017-10-29T13:09:55.599Z,13.28
2017-10-29T13:10:56.376Z,13.79